createdAt,value
2023-02-06T00:00:56.936Z,44.00
2023-02-06T00:03:24.568Z,47.25
2023-02-06T00:05:56.687Z,45.05
2023-02-06T00:08:24.354Z,62.92
2023-02-06T00:10:52.144Z,47.88
2023-02-06T00:13:19.794Z,51.37
2023-02-06T00:15:47.487Z,47.63
2023-02-06T00:18:16.581Z,49.03
2023-02-06T00:20:44.207Z,48.25
2023-02-06T00:23:12.016Z,46.45
2023-02-06T00:25:39.630Z,57.33
2023-02-06T00:28:07.400Z,48.47
2023-02-06T00:30:35.100Z,38.17
2023-02-06T00:33:02.897Z,37.20
2023-02-06T00:35:32.057Z,49.30
2023-02-06T00:38:00.851Z,50.13
2023-02-06T00:40:28.530Z,47.47
2023-02-06T00:42:56.150Z,47.53
2023-02-06T00:45:23.843Z,48.58
2023-02-06T00:47:51.450Z,50.13
2023-02-06T00:50:19.294Z,49.30
2023-02-06T00:52:48.599Z,56.47
2023-02-06T00:55:16.533Z,46.35
2023-02-06T00:57:44.415Z,56.08
2023-02-06T01:00:13.210Z,61.00
2023-02-06T01:02:40.964Z,50.35
2023-02-06T01:05:09.670Z,52.58
2023-02-06T01:07:39.321Z,64.68
2023-02-06T01:10:10.371Z,56.13
2023-02-06T01:12:38.820Z,49.97
2023-02-06T01:15:07.745Z,57.05
2023-02-06T01:17:36.066Z,55.55
2023-02-06T01:20:04.139Z,44.08
2023-02-06T01:22:34.285Z,53.83
2023-02-06T01:25:02.078Z,57.40
2023-02-06T01:27:31.658Z,51.70
2023-02-06T01:29:59.313Z,58.85
2023-02-06T01:32:26.924Z,56.00
2023-02-06T01:34:54.554Z,67.65
2023-02-06T01:37:22.171Z,53.72
2023-02-06T01:39:49.807Z,55.72
2023-02-06T01:42:17.499Z,54.67
2023-02-06T01:44:46.694Z,58.50
2023-02-06T01:47:14.467Z,49.47
2023-02-06T01:49:44.720Z,68.65
2023-02-06T01:52:15.659Z,52.33
2023-02-06T01:54:43.936Z,59.92
2023-02-06T01:57:13.011Z,45.65
2023-02-06T01:59:42.269Z,56.55
2023-02-06T02:02:12.031Z,58.80
2023-02-06T02:04:39.675Z,59.35
2023-02-06T02:07:12.147Z,55.83
2023-02-06T02:09:39.959Z,57.22
2023-02-06T02:12:07.997Z,59.00
2023-02-06T02:14:35.944Z,53.53
2023-02-06T02:17:16.191Z,58.15
2023-02-06T02:20:02.558Z,54.35
2023-02-06T02:22:54.741Z,48.03
2023-02-06T02:25:39.878Z,61.17
2023-02-06T02:28:36.339Z,63.95
2023-02-06T02:31:21.417Z,53.65
2023-02-06T02:34:34.637Z,54.25
2023-02-06T02:37:09.222Z,48.17
2023-02-06T02:39:43.463Z,61.55
2023-02-06T02:42:14.573Z,58.53
2023-02-06T02:44:47.156Z,63.05
2023-02-06T02:47:16.521Z,59.38
2023-02-06T02:49:46.502Z,54.63
2023-02-06T02:52:16.498Z,59.00
2023-02-06T02:54:44.193Z,83.25
2023-02-06T02:57:15.419Z,49.63
2023-02-06T02:59:45.140Z,47.83
2023-02-06T03:02:14.779Z,57.78
2023-02-06T03:04:47.378Z,60.60
2023-02-06T03:07:23.551Z,53.13
2023-02-06T03:09:59.310Z,67.05
2023-02-06T03:12:36.090Z,59.97
2023-02-06T03:15:05.583Z,61.45
2023-02-06T03:17:36.392Z,54.83
2023-02-06T03:20:06.744Z,51.22
2023-02-06T03:22:36.932Z,62.00
2023-02-06T03:25:06.533Z,54.73
2023-02-06T03:27:35.060Z,67.18
2023-02-06T03:30:04.393Z,38.55
2023-02-06T03:32:33.910Z,55.10
2023-02-06T03:35:04.477Z,59.38
2023-02-06T03:37:32.655Z,53.40
2023-02-06T03:40:02.262Z,65.80
2023-02-06T03:42:31.207Z,44.30
2023-02-06T03:45:01.787Z,64.20
2023-02-06T03:47:30.692Z,59.45
2023-02-06T03:50:00.212Z,63.95
2023-02-06T03:52:33.036Z,62.92
2023-02-06T03:55:06.501Z,57.45
2023-02-06T03:57:35.697Z,70.50
2023-02-06T04:00:03.576Z,65.20
2023-02-06T04:02:32.185Z,62.55
2023-02-06T04:04:59.868Z,57.03
2023-02-06T04:07:28.973Z,62.80
2023-02-06T04:09:56.934Z,63.55
2023-02-06T04:12:26.584Z,53.30
2023-02-06T04:14:54.511Z,65.03
2023-02-06T04:17:40.604Z,55.75
2023-02-06T04:20:11.040Z,48.40
2023-02-06T04:22:40.134Z,73.95
2023-02-06T04:25:08.218Z,57.72
2023-02-06T04:28:00.910Z,63.67
2023-02-06T04:30:28.670Z,75.88
2023-02-06T04:32:56.356Z,66.13
2023-02-06T04:35:24.037Z,64.38
2023-02-06T04:37:51.896Z,67.05
2023-02-06T04:40:19.795Z,60.95
2023-02-06T04:42:47.643Z,58.13
2023-02-06T04:45:17.180Z,63.40
2023-02-06T04:47:45.061Z,71.40
2023-02-06T04:50:13.009Z,62.85
2023-02-06T04:52:40.685Z,75.05
2023-02-06T04:55:09.072Z,66.78
2023-02-06T04:57:36.833Z,71.13
2023-02-06T05:00:05.993Z,81.57
2023-02-06T05:02:39.493Z,78.97
2023-02-06T05:05:09.561Z,61.35
2023-02-06T05:07:37.614Z,41.58
2023-02-06T05:10:05.690Z,67.00
2023-02-06T05:12:33.606Z,51.25
2023-02-06T05:15:01.264Z,21.83
2023-02-06T05:17:29.000Z,59.08
2023-02-06T05:19:58.618Z,52.58
2023-02-06T05:22:26.552Z,43.23
2023-02-06T05:24:54.289Z,34.88
2023-02-06T05:27:22.029Z,26.67
2023-02-06T05:29:49.761Z,32.20
2023-02-06T05:32:18.223Z,36.92
2023-02-06T05:34:48.959Z,22.20
2023-02-06T05:37:18.173Z,50.28
2023-02-06T05:39:46.289Z,20.65
2023-02-06T05:42:14.135Z,31.23
2023-02-06T05:44:41.802Z,36.40
2023-02-06T05:47:09.515Z,42.53
2023-02-06T05:49:37.206Z,39.15
2023-02-06T05:52:05.010Z,32.00
2023-02-06T05:54:34.466Z,32.13
2023-02-06T05:57:02.135Z,25.48
2023-02-06T05:59:29.940Z,19.67
2023-02-06T06:01:57.628Z,22.38
2023-02-06T06:04:26.033Z,36.67
2023-02-06T06:06:53.891Z,17.25
2023-02-06T06:09:22.016Z,10.67
2023-02-06T06:11:51.992Z,22.97
2023-02-06T06:14:19.808Z,34.78
2023-02-06T06:16:47.495Z,23.30
2023-02-06T06:19:15.210Z,25.33
2023-02-06T06:21:43.216Z,18.05
2023-02-06T06:24:11.068Z,12.27
2023-02-06T06:26:39.343Z,20.10
2023-02-06T06:29:08.467Z,30.95
2023-02-06T06:31:36.414Z,17.48
2023-02-06T06:34:04.420Z,28.52
2023-02-06T06:36:43.055Z,20.40
2023-02-06T06:39:10.968Z,16.00
2023-02-06T06:41:38.977Z,10.90
2023-02-06T06:44:08.022Z,16.23
2023-02-06T06:46:35.680Z,15.40
2023-02-06T06:49:03.407Z,7.97
2023-02-06T06:51:31.131Z,6.45
2023-02-06T06:53:58.986Z,18.83
2023-02-06T06:56:26.988Z,13.95
2023-02-06T06:58:55.507Z,18.98
2023-02-06T07:01:24.710Z,27.83
2023-02-06T07:03:52.406Z,16.13
2023-02-06T07:06:20.086Z,15.23
2023-02-06T07:08:47.910Z,9.68
2023-02-06T07:11:26.195Z,8.88
2023-02-06T07:13:54.192Z,10.10
2023-02-06T07:16:21.915Z,21.92
2023-02-06T07:18:51.292Z,19.27
2023-02-06T07:21:19.944Z,18.60
2023-02-06T07:23:47.639Z,15.98
2023-02-06T07:26:15.453Z,11.05
2023-02-06T07:28:43.533Z,10.20
2023-02-06T07:31:11.782Z,19.33
2023-02-06T07:33:39.784Z,20.52
2023-02-06T07:38:54.061Z,11.02
2023-02-06T07:41:21.734Z,13.48
2023-02-06T07:43:49.355Z,19.00
2023-02-06T07:46:17.158Z,13.15
2023-02-06T07:48:44.841Z,19.80
2023-02-06T07:51:12.564Z,17.45
2023-02-06T07:53:40.263Z,18.10
2023-02-06T07:56:13.494Z,13.82
2023-02-06T07:58:41.345Z,18.40
2023-02-06T08:01:09.450Z,18.63
2023-02-06T08:03:37.644Z,24.08
2023-02-06T08:06:09.392Z,14.70
2023-02-06T08:08:37.635Z,17.35
2023-02-06T08:11:06.684Z,20.87
2023-02-06T08:13:55.792Z,17.05
2023-02-06T08:16:24.512Z,18.63
2023-02-06T08:19:23.435Z,10.77
2023-02-06T08:21:51.274Z,14.25
2023-02-06T08:24:19.034Z,15.82
2023-02-06T08:26:46.711Z,16.52
2023-02-06T08:29:15.870Z,11.85
2023-02-06T08:31:44.138Z,15.20
2023-02-06T08:34:14.679Z,14.40
2023-02-06T08:36:43.657Z,18.05
2023-02-06T08:39:12.725Z,22.80
2023-02-06T08:41:41.740Z,18.23
2023-02-06T08:44:12.835Z,17.90
2023-02-06T08:46:42.741Z,23.00
2023-02-06T08:49:15.284Z,21.38
2023-02-06T08:51:43.832Z,18.47
2023-02-06T08:54:22.562Z,15.93
2023-02-06T08:56:51.034Z,19.67
2023-02-06T08:59:20.367Z,23.08
2023-02-06T09:01:50.271Z,22.60
2023-02-06T09:04:19.433Z,15.77
2023-02-06T09:06:48.828Z,27.02
2023-02-06T09:09:17.317Z,25.08
2023-02-06T09:12:22.713Z,20.20
2023-02-06T09:14:51.046Z,22.55
2023-02-06T09:17:20.084Z,34.70
2023-02-06T09:19:47.752Z,27.55
2023-02-06T09:22:15.470Z,26.98
2023-02-06T09:24:43.245Z,23.33
2023-02-06T09:27:10.902Z,25.38
2023-02-06T09:29:38.527Z,27.80
2023-02-06T09:32:06.369Z,28.17
2023-02-06T09:34:36.006Z,21.50
2023-02-06T09:37:04.141Z,25.73
2023-02-06T09:39:32.075Z,22.42
2023-02-06T09:42:04.818Z,22.92
2023-02-06T09:44:34.599Z,20.05
2023-02-06T09:47:07.635Z,23.95
2023-02-06T09:49:44.838Z,19.40
2023-02-06T09:52:22.046Z,18.92
2023-02-06T09:54:55.709Z,22.40
2023-02-06T09:57:31.420Z,27.38
2023-02-06T10:00:03.436Z,24.40
2023-02-06T10:02:51.799Z,32.83
2023-02-06T10:05:25.209Z,25.90
2023-02-06T10:08:00.438Z,25.90
2023-02-06T10:10:38.468Z,26.27
2023-02-06T10:13:12.025Z,29.33
2023-02-06T10:15:45.258Z,31.35
2023-02-06T10:18:16.554Z,26.70
2023-02-06T10:20:49.678Z,26.67
2023-02-06T10:23:22.135Z,32.47
2023-02-06T10:25:54.145Z,35.40
2023-02-06T10:28:24.654Z,28.30
2023-02-06T10:31:04.505Z,32.30
2023-02-06T10:33:36.517Z,33.37
2023-02-06T10:36:10.794Z,31.73
2023-02-06T10:39:01.006Z,33.17
2023-02-06T10:41:33.707Z,33.80
2023-02-06T10:44:14.902Z,35.28
2023-02-06T10:46:44.192Z,34.42
2023-02-06T10:49:18.771Z,31.88
2023-02-06T10:51:52.695Z,36.10
2023-02-06T10:54:23.366Z,25.88
2023-02-06T10:56:53.136Z,27.20
2023-02-06T10:59:28.160Z,26.45
2023-02-06T11:02:03.220Z,34.88
2023-02-06T11:04:36.573Z,33.90
2023-02-06T11:07:10.373Z,32.35
2023-02-06T11:09:38.144Z,36.40
2023-02-06T11:12:06.568Z,30.38
2023-02-06T11:14:37.319Z,28.90
2023-02-06T11:17:05.002Z,35.95
2023-02-06T11:19:36.055Z,39.97
2023-02-06T11:22:13.579Z,32.47
2023-02-06T11:24:59.873Z,42.08
2023-02-06T11:27:28.212Z,37.38
2023-02-06T11:29:55.894Z,42.25
2023-02-06T11:32:30.668Z,34.27
2023-02-06T11:35:01.241Z,39.15
2023-02-06T11:37:42.912Z,46.77
2023-02-06T11:40:24.420Z,32.13
2023-02-06T11:42:53.843Z,37.95
2023-02-06T11:45:27.757Z,33.70
2023-02-06T11:47:55.724Z,35.75
2023-02-06T11:50:28.421Z,36.85
2023-02-06T11:53:09.471Z,33.07
2023-02-06T11:55:38.680Z,30.95
2023-02-06T11:58:18.826Z,25.70
2023-02-06T12:00:58.649Z,21.88
2023-02-06T12:03:31.292Z,27.25
2023-02-06T12:06:03.257Z,33.50
2023-02-06T12:08:45.430Z,24.50
2023-02-06T12:11:18.947Z,27.48
2023-02-06T12:14:04.273Z,28.10
2023-02-06T12:16:34.087Z,27.77
2023-02-06T12:19:16.943Z,22.48
2023-02-06T12:21:47.722Z,29.02
2023-02-06T12:24:23.658Z,32.17
2023-02-06T12:26:51.778Z,20.38
2023-02-06T12:29:22.730Z,20.67
2023-02-06T12:32:22.312Z,20.87
2023-02-06T12:34:54.320Z,22.58
2023-02-06T12:37:31.493Z,17.05
2023-02-06T12:40:01.326Z,20.33
2023-02-06T12:42:37.278Z,21.15
2023-02-06T12:45:11.997Z,24.70
2023-02-06T12:47:43.949Z,26.37
2023-02-06T12:50:15.673Z,27.98
2023-02-06T12:52:46.666Z,23.00
2023-02-06T12:55:20.546Z,20.10
2023-02-06T12:57:48.358Z,24.08
2023-02-06T13:00:28.635Z,24.52
2023-02-06T13:03:08.728Z,19.92
2023-02-06T13:05:38.651Z,21.15
2023-02-06T13:08:09.678Z,18.20
2023-02-06T13:11:05.060Z,22.67
2023-02-06T13:13:34.750Z,18.40
2023-02-06T13:16:02.482Z,25.02
2023-02-06T13:18:50.748Z,22.98
2023-02-06T13:21:20.922Z,24.33
2023-02-06T13:23:53.533Z,22.38
2023-02-06T13:27:02.900Z,24.55
2023-02-06T13:29:33.135Z,27.25
2023-02-06T13:32:32.502Z,23.00
2023-02-06T13:35:08.396Z,21.75
2023-02-06T13:37:38.317Z,30.30
2023-02-06T13:40:20.929Z,32.10
2023-02-06T13:42:52.898Z,25.38
2023-02-06T13:45:23.420Z,27.20
2023-02-06T13:48:11.547Z,31.70
2023-02-06T13:50:56.655Z,24.40
2023-02-06T13:53:37.712Z,24.17
2023-02-06T13:56:27.227Z,23.63
2023-02-06T13:59:16.558Z,28.00
2023-02-06T14:01:44.340Z,29.27
2023-02-06T14:04:19.315Z,26.50
2023-02-06T14:07:01.626Z,25.65
2023-02-06T14:09:58.987Z,26.02
2023-02-06T14:12:35.581Z,30.42
2023-02-06T14:15:31.201Z,22.42
2023-02-06T14:18:17.915Z,34.28
2023-02-06T14:20:52.774Z,31.85
2023-02-06T14:23:28.813Z,25.13
2023-02-06T14:26:06.562Z,27.42
2023-02-06T14:28:42.260Z,27.50
2023-02-06T14:31:20.144Z,23.67
2023-02-06T14:33:57.459Z,30.67
2023-02-06T14:36:38.313Z,30.35
2023-02-06T14:39:30.488Z,30.45
2023-02-06T14:41:58.565Z,27.48
2023-02-06T14:44:30.792Z,23.00
2023-02-06T14:47:00.060Z,26.35
2023-02-06T14:49:32.881Z,23.27
2023-02-06T14:54:38.404Z,28.50
2023-02-06T14:57:25.591Z,38.22
2023-02-06T14:59:55.746Z,26.75
2023-02-06T15:02:29.435Z,30.85
2023-02-06T15:04:57.366Z,30.08
2023-02-06T15:07:29.610Z,31.83
2023-02-06T15:10:00.945Z,27.00
2023-02-06T15:12:30.226Z,30.83
2023-02-06T15:15:02.721Z,23.05
2023-02-06T15:17:34.059Z,21.60
2023-02-06T15:20:27.850Z,21.48
2023-02-06T15:23:05.074Z,25.45
2023-02-06T15:25:49.106Z,23.42
2023-02-06T15:28:19.879Z,24.73
2023-02-06T15:30:48.560Z,22.38
2023-02-06T15:33:23.841Z,21.58
2023-02-06T15:35:54.213Z,28.80
2023-02-06T15:38:23.135Z,22.95
2023-02-06T15:40:52.518Z,32.83
2023-02-06T15:43:22.030Z,26.10
2023-02-06T15:45:51.291Z,27.57
2023-02-06T15:48:24.714Z,22.83
2023-02-06T15:50:57.638Z,22.00
2023-02-06T15:53:34.761Z,34.73
2023-02-06T15:56:04.105Z,22.00
2023-02-06T15:58:33.285Z,21.23
2023-02-06T16:01:01.427Z,25.17
2023-02-06T16:03:31.622Z,16.80
2023-02-06T16:05:59.767Z,23.97
2023-02-06T16:08:30.372Z,27.37
2023-02-06T16:11:00.675Z,27.17
2023-02-06T16:13:30.052Z,21.50
2023-02-06T16:16:08.446Z,24.40
2023-02-06T16:18:38.465Z,20.13
2023-02-06T16:21:18.895Z,21.38
2023-02-06T16:23:47.354Z,20.23
2023-02-06T16:26:17.984Z,19.20
2023-02-06T16:28:56.416Z,26.75
2023-02-06T16:31:25.246Z,26.90
2023-02-06T16:33:55.708Z,24.10
2023-02-06T16:36:24.712Z,23.52
2023-02-06T16:39:03.166Z,27.85
2023-02-06T16:41:34.273Z,25.73
2023-02-06T16:44:03.103Z,27.97
2023-02-06T16:46:30.954Z,27.90
2023-02-06T16:49:00.893Z,20.50
2023-02-06T16:51:31.067Z,21.33
2023-02-06T16:53:59.322Z,23.27
2023-02-06T16:56:27.075Z,23.58
2023-02-06T16:58:54.796Z,30.98
2023-02-06T17:01:25.230Z,21.48
2023-02-06T17:03:53.482Z,21.35
2023-02-06T17:06:24.956Z,28.27
2023-02-06T17:08:53.281Z,22.92
2023-02-06T17:11:21.369Z,29.77
2023-02-06T17:13:49.101Z,34.33
2023-02-06T17:16:19.320Z,42.03
2023-02-06T17:18:47.516Z,37.53
2023-02-06T17:21:17.208Z,39.58
2023-02-06T17:23:48.874Z,35.17
2023-02-06T17:26:19.203Z,30.80
2023-02-06T17:28:47.535Z,39.45
2023-02-06T17:31:15.660Z,32.35
2023-02-06T17:33:43.650Z,31.42
2023-02-06T17:36:15.926Z,30.17
2023-02-06T17:38:43.653Z,30.60
2023-02-06T17:41:12.762Z,35.78
2023-02-06T17:43:40.530Z,36.15
2023-02-06T17:46:08.396Z,25.52
2023-02-06T17:48:39.316Z,41.38
2023-02-06T17:51:07.292Z,35.15
2023-02-06T17:53:34.972Z,37.27
2023-02-06T17:56:05.486Z,33.88
2023-02-06T17:58:35.027Z,30.92
2023-02-06T18:01:02.718Z,31.25
2023-02-06T18:03:30.605Z,34.55
2023-02-06T18:05:59.198Z,42.67
2023-02-06T18:08:27.556Z,39.57
2023-02-06T18:10:55.598Z,42.08
2023-02-06T18:13:24.443Z,34.05
2023-02-06T18:15:55.251Z,44.90
2023-02-06T18:18:23.648Z,39.92
2023-02-06T18:20:52.184Z,39.53
2023-02-06T18:23:20.294Z,36.17
2023-02-06T18:25:47.957Z,36.53
2023-02-06T18:28:17.433Z,41.38
2023-02-06T18:30:45.924Z,30.23
2023-02-06T18:33:15.055Z,26.02
2023-02-06T18:35:45.620Z,28.27
2023-02-06T18:38:14.255Z,32.50
2023-02-06T18:40:42.985Z,37.40
2023-02-06T18:43:09.628Z,44.67
2023-02-06T18:45:38.896Z,33.50
2023-02-06T18:48:09.092Z,32.53
2023-02-06T18:50:40.191Z,31.87
2023-02-06T18:53:08.546Z,52.63
2023-02-06T18:55:37.275Z,35.20
2023-02-06T18:58:05.676Z,34.67
2023-02-06T19:00:35.801Z,40.23
2023-02-06T19:03:03.775Z,43.20
2023-02-06T19:05:35.243Z,42.63
2023-02-06T19:08:04.373Z,35.93
2023-02-06T19:10:32.057Z,43.33
2023-02-06T19:13:00.111Z,43.03
2023-02-06T19:15:30.134Z,42.63
2023-02-06T19:17:58.025Z,33.03
2023-02-06T19:20:25.886Z,29.33
2023-02-06T19:22:54.066Z,37.47
2023-02-06T19:25:23.498Z,43.83
2023-02-06T19:27:51.587Z,41.53
2023-02-06T19:30:19.413Z,42.53
2023-02-06T19:32:48.754Z,51.42
2023-02-06T19:35:17.278Z,55.28
2023-02-06T19:37:48.193Z,44.90
2023-02-06T19:40:16.072Z,47.90
2023-02-06T19:42:45.738Z,62.10
2023-02-06T19:45:13.795Z,51.15
2023-02-06T19:47:42.586Z,45.45
2023-02-06T19:50:12.626Z,54.72
2023-02-06T19:52:41.877Z,68.95
2023-02-06T19:55:09.889Z,82.15
2023-02-06T19:57:39.618Z,56.80
2023-02-06T20:00:10.378Z,126.80
2023-02-06T20:02:39.075Z,65.03
2023-02-06T20:05:07.638Z,68.63
2023-02-06T20:07:35.307Z,70.80
2023-02-06T20:10:03.153Z,190.70
2023-02-06T20:12:31.719Z,43.57
2023-02-06T20:15:00.606Z,58.80
2023-02-06T20:17:30.227Z,177.50
2023-02-06T20:19:59.576Z,100.20
2023-02-06T20:22:27.721Z,293.42
2023-02-06T20:24:55.681Z,151.80
2023-02-06T20:27:23.359Z,77.30
2023-02-06T20:29:51.126Z,251.68
2023-02-06T20:32:19.463Z,53.05
2023-02-06T20:34:48.566Z,98.17
2023-02-06T20:37:17.656Z,44.83
2023-02-06T20:39:45.670Z,55.23
2023-02-06T20:42:13.316Z,62.58
2023-02-06T20:44:41.132Z,49.15
2023-02-06T20:47:08.845Z,61.17
2023-02-06T20:49:36.532Z,50.22
2023-02-06T20:52:06.387Z,59.40
2023-02-06T20:54:34.362Z,56.97
2023-02-06T20:57:02.055Z,51.78
2023-02-06T20:59:29.785Z,52.53
2023-02-06T21:01:57.499Z,63.90
2023-02-06T21:04:25.720Z,64.40
2023-02-06T21:06:53.498Z,71.47
2023-02-06T21:09:22.604Z,55.53
2023-02-06T21:11:51.130Z,67.83
2023-02-06T21:14:19.857Z,57.83
2023-02-06T21:16:47.989Z,60.33
2023-02-06T21:19:18.758Z,62.43
2023-02-06T21:21:47.098Z,47.50
2023-02-06T21:24:15.546Z,57.05
2023-02-06T21:26:45.279Z,56.33
2023-02-06T21:29:13.866Z,58.08
2023-02-06T21:31:55.716Z,67.63
2023-02-06T21:34:28.339Z,71.63
2023-02-06T21:36:56.039Z,68.82
2023-02-06T21:39:27.145Z,61.17
2023-02-06T21:41:57.106Z,58.35
2023-02-06T21:44:26.395Z,50.45
2023-02-06T21:46:55.912Z,68.70
2023-02-06T21:49:23.785Z,68.43
2023-02-06T21:51:51.787Z,58.97
2023-02-06T21:54:20.032Z,59.65
2023-02-06T21:56:47.736Z,47.10
2023-02-06T21:59:16.780Z,65.05
2023-02-06T22:01:44.504Z,51.45
2023-02-06T22:04:12.871Z,57.83
2023-02-06T22:06:41.178Z,52.20
2023-02-06T22:09:10.534Z,52.40
2023-02-06T22:11:40.208Z,48.17
2023-02-06T22:14:10.853Z,55.33
2023-02-06T22:16:40.303Z,51.65
2023-02-06T22:19:08.480Z,52.45
2023-02-06T22:21:36.504Z,51.65
2023-02-06T22:24:07.895Z,57.53
2023-02-06T22:26:38.958Z,57.85
2023-02-06T22:29:07.390Z,43.92
2023-02-06T22:31:36.309Z,44.92
2023-02-06T22:34:26.231Z,47.65
2023-02-06T22:36:53.968Z,58.58
2023-02-06T22:39:21.655Z,39.67
2023-02-06T22:41:49.704Z,55.03
2023-02-06T22:44:18.267Z,48.30
2023-02-06T22:46:47.841Z,50.95
2023-02-06T22:49:17.444Z,51.10
2023-02-06T22:51:45.492Z,48.10
2023-02-06T22:54:13.838Z,46.55
2023-02-06T22:56:42.611Z,48.17
2023-02-06T22:59:13.229Z,46.33
2023-02-06T23:01:42.594Z,47.93
2023-02-06T23:04:13.967Z,43.17
2023-02-06T23:06:44.099Z,51.90
2023-02-06T23:09:14.030Z,61.28
2023-02-06T23:11:42.068Z,56.90
2023-02-06T23:14:09.969Z,54.28
2023-02-06T23:16:37.637Z,56.33
2023-02-06T23:19:07.214Z,62.95
2023-02-06T23:21:37.138Z,43.20
2023-02-06T23:24:07.594Z,51.40
2023-02-06T23:26:35.819Z,55.13
2023-02-06T23:29:06.553Z,57.63
2023-02-06T23:31:34.758Z,47.53
2023-02-06T23:34:02.571Z,55.73
2023-02-06T23:36:30.586Z,47.22
2023-02-06T23:38:58.256Z,45.45
2023-02-06T23:41:28.598Z,36.67
2023-02-06T23:43:59.902Z,51.65
2023-02-06T23:46:29.931Z,43.30
2023-02-06T23:48:57.758Z,59.05
2023-02-06T23:51:26.326Z,45.78
2023-02-06T23:53:54.161Z,49.47
2023-02-06T23:56:24.882Z,44.55
2023-02-06T23:58:54.819Z,46.20
